logo
Search for airport 
image banner adimage banner adimage banner ad
image banner ad

EGTE - Exeter

Located in Exeter, United Kingdom

ICAO - EGTE, IATA - EXT

Data provided by Airmate  

General information

Coordinates: N50°44'3" W3°24'50"
Elevation is 102 feet MSL.
Magnetic variation is -1° East
View others Airports in England

Operational data

Special qualification required
Current time UTC:
Current local time:
Weather
METAR: EGTE 152050Z 28010KT 9999 FEW032 08/04 Q1015
TAF: TAF EGTE 151958Z 1521/1603 31015G25KT 9999 FEW030
View NOTAMs / SUP AIP / TFR affecting this airport [VIEW]
Communications frequencies: [VIEW]

Runways:

RWY identifierQFULength (ft)Width (ft)SurfaceLDA (ft)
0876°6811148ASP
26256°6811148ASP

Airport contact information

Address: Exeter United Kingdom

Handlers

Xlr Executive Jet Centre

Xlr Executive Jet Centre
[VIEW][VIEW]
+447738579182

Other aviation service providers

Flight schools

Airways Flight Training (Exeter) Limited

Airways Flight Training (Exeter) Limited
+44 01392364216

Aviation South West Limited (Aviation South West Limited T/A Aviation South West And T/A Exeter Flyi

Aviation South West Limited (Aviation South West Limited T/A Aviation South West And T/A Exeter Flyi

Exeter Aviation Limited T/A Exeter Flying School

Exeter Aviation Limited T/A Exeter Flying School
+44 01404823481

Plymouth School Of Flying Limited

Plymouth School Of Flying Limited

Satellite view of EGTE